sensor_id;sensor_type;location;lat;lon;timestamp;temperature;humidity
15707;DHT22;7953;54.302;10.128;2024-02-15T00:00:10;10.60;99.90
15707;DHT22;7953;54.302;10.128;2024-02-15T00:02:39;10.60;99.90
15707;DHT22;7953;54.302;10.128;2024-02-15T00:05:06;10.60;99.90
15707;DHT22;7953;54.302;10.128;2024-02-15T00:07:33;10.60;99.90
15707;DHT22;7953;54.302;10.128;2024-02-15T00:10:00;10.60;99.90
15707;DHT22;7953;54.302;10.128;2024-02-15T00:12:29;10.70;99.90
15707;DHT22;7953;54.302;10.128;2024-02-15T00:14:56;10.60;99.90
15707;DHT22;7953;54.302;10.128;2024-02-15T00:17:24;10.60;99.90
15707;DHT22;7953;54.302;10.128;2024-02-15T00:19:52;10.70;99.90
15707;DHT22;7953;54.302;10.128;2024-02-15T00:22:19;10.70;99.90
15707;DHT22;7953;54.302;10.128;2024-02-15T00:24:46;10.60;99.90
15707;DHT22;7953;54.302;10.128;2024-02-15T00:27:14;10.60;99.90
15707;DHT22;7953;54.302;10.128;2024-02-15T00:29:41;10.60;99.90
15707;DHT22;7953;54.302;10.128;2024-02-15T00:32:08;10.60;99.90
15707;DHT22;7953;54.302;10.128;2024-02-15T00:34:36;10.60;99.90
15707;DHT22;7953;54.302;10.128;2024-02-15T00:37:05;10.60;99.90
15707;DHT22;7953;54.302;10.128;2024-02-15T00:39:32;10.60;99.90
15707;DHT22;7953;54.302;10.128;2024-02-15T00:41:59;10.60;99.90
15707;DHT22;7953;54.302;10.128;2024-02-15T00:44:27;10.60;99.90
15707;DHT22;7953;54.302;10.128;2024-02-15T00:46:53;10.60;99.90
15707;DHT22;7953;54.302;10.128;2024-02-15T00:49:21;10.60;99.90
15707;DHT22;7953;54.302;10.128;2024-02-15T00:51:48;10.60;99.90
15707;DHT22;7953;54.302;10.128;2024-02-15T00:54:16;10.60;99.90
15707;DHT22;7953;54.302;10.128;2024-02-15T00:56:43;10.60;99.90
15707;DHT22;7953;54.302;10.128;2024-02-15T00:59:10;10.60;99.90
15707;DHT22;7953;54.302;10.128;2024-02-15T01:01:37;10.60;99.90
15707;DHT22;7953;54.302;10.128;2024-02-15T01:04:04;10.60;99.90
15707;DHT22;7953;54.302;10.128;2024-02-15T01:06:31;10.60;99.90
15707;DHT22;7953;54.302;10.128;2024-02-15T01:08:59;10.60;99.90
15707;DHT22;7953;54.302;10.128;2024-02-15T01:11:29;10.60;99.90
15707;DHT22;7953;54.302;10.128;2024-02-15T01:13:57;10.60;99.90
15707;DHT22;7953;54.302;10.128;2024-02-15T01:16:24;10.60;99.90
15707;DHT22;7953;54.302;10.128;2024-02-15T01:18:51;10.60;99.90
15707;DHT22;7953;54.302;10.128;2024-02-15T01:21:18;10.60;99.90
15707;DHT22;7953;54.302;10.128;2024-02-15T01:23:45;10.60;99.90
15707;DHT22;7953;54.302;10.128;2024-02-15T01:26:12;10.70;99.90
15707;DHT22;7953;54.302;10.128;2024-02-15T01:28:41;10.70;99.90
15707;DHT22;7953;54.302;10.128;2024-02-15T01:31:08;10.60;99.90
15707;DHT22;7953;54.302;10.128;2024-02-15T01:33:36;10.70;99.90
15707;DHT22;7953;54.302;10.128;2024-02-15T01:36:04;10.60;99.90
15707;DHT22;7953;54.302;10.128;2024-02-15T01:38:31;10.60;99.90
15707;DHT22;7953;54.302;10.128;2024-02-15T01:40:58;10.60;99.90
15707;DHT22;7953;54.302;10.128;2024-02-15T01:43:25;10.60;99.90
15707;DHT22;7953;54.302;10.128;2024-02-15T01:45:53;10.60;99.90
15707;DHT22;7953;54.302;10.128;2024-02-15T01:48:20;10.60;99.90
15707;DHT22;7953;54.302;10.128;2024-02-15T01:50:48;10.60;99.90
15707;DHT22;7953;54.302;10.128;2024-02-15T01:53:17;10.60;99.90
15707;DHT22;7953;54.302;10.128;2024-02-15T01:55:44;10.60;99.90
15707;DHT22;7953;54.302;10.128;2024-02-15T01:58:11;10.60;99.90
15707;DHT22;7953;54.302;10.128;2024-02-15T02:00:38;10.60;99.90
15707;DHT22;7953;54.302;10.128;2024-02-15T02:03:06;10.60;99.90
15707;DHT22;7953;54.302;10.128;2024-02-15T02:05:35;10.60;99.90
15707;DHT22;7953;54.302;10.128;2024-02-15T02:08:03;10.60;99.90
15707;DHT22;7953;54.302;10.128;2024-02-15T02:10:34;10.60;99.90
15707;DHT22;7953;54.302;10.128;2024-02-15T02:13:02;10.60;99.90
15707;DHT22;7953;54.302;10.128;2024-02-15T02:15:29;10.60;99.90
15707;DHT22;7953;54.302;10.128;2024-02-15T02:17:57;10.60;99.90
15707;DHT22;7953;54.302;10.128;2024-02-15T02:20:25;10.60;99.90
15707;DHT22;7953;54.302;10.128;2024-02-15T02:22:54;10.60;99.90
15707;DHT22;7953;54.302;10.128;2024-02-15T02:25:23;10.60;99.90
15707;DHT22;7953;54.302;10.128;2024-02-15T02:27:53;10.60;99.90
15707;DHT22;7953;54.302;10.128;2024-02-15T02:30:21;10.60;99.90
15707;DHT22;7953;54.302;10.128;2024-02-15T02:32:49;10.60;99.90
15707;DHT22;7953;54.302;10.128;2024-02-15T02:35:15;10.60;99.90
15707;DHT22;7953;54.302;10.128;2024-02-15T02:37:42;10.70;99.90
15707;DHT22;7953;54.302;10.128;2024-02-15T02:40:10;10.60;99.90
15707;DHT22;7953;54.302;10.128;2024-02-15T02:42:49;10.60;99.90
15707;DHT22;7953;54.302;10.128;2024-02-15T02:45:16;10.60;99.90
15707;DHT22;7953;54.302;10.128;2024-02-15T02:47:45;10.70;99.90
15707;DHT22;7953;54.302;10.128;2024-02-15T02:50:12;10.70;99.90
15707;DHT22;7953;54.302;10.128;2024-02-15T02:52:39;10.60;99.90
15707;DHT22;7953;54.302;10.128;2024-02-15T02:55:06;10.70;99.90
15707;DHT22;7953;54.302;10.128;2024-02-15T02:57:34;10.60;99.90
15707;DHT22;7953;54.302;10.128;2024-02-15T03:00:05;10.60;99.90
15707;DHT22;7953;54.302;10.128;2024-02-15T03:02:34;10.60;99.90
15707;DHT22;7953;54.302;10.128;2024-02-15T03:05:02;10.70;99.90
15707;DHT22;7953;54.302;10.128;2024-02-15T03:07:32;10.70;99.90
15707;DHT22;7953;54.302;10.128;2024-02-15T03:09:59;10.70;99.90
15707;DHT22;7953;54.302;10.128;2024-02-15T03:12:26;10.60;99.90
15707;DHT22;7953;54.302;10.128;2024-02-15T03:14:54;10.60;99.90
15707;DHT22;7953;54.302;10.128;2024-02-15T03:17:23;10.70;99.90
15707;DHT22;7953;54.302;10.128;2024-02-15T03:19:50;10.60;99.90
15707;DHT22;7953;54.302;10.128;2024-02-15T03:22:16;10.60;99.90
15707;DHT22;7953;54.302;10.128;2024-02-15T03:24:43;10.60;99.90
15707;DHT22;7953;54.302;10.128;2024-02-15T03:27:10;10.60;99.90
15707;DHT22;7953;54.302;10.128;2024-02-15T03:29:38;10.70;99.90
15707;DHT22;7953;54.302;10.128;2024-02-15T03:32:06;10.60;99.90
15707;DHT22;7953;54.302;10.128;2024-02-15T03:34:34;10.60;99.90
15707;DHT22;7953;54.302;10.128;2024-02-15T03:37:01;10.70;99.90
15707;DHT22;7953;54.302;10.128;2024-02-15T03:39:29;10.70;99.90
15707;DHT22;7953;54.302;10.128;2024-02-15T03:41:58;10.70;99.90
15707;DHT22;7953;54.302;10.128;2024-02-15T03:44:25;10.70;99.90
15707;DHT22;7953;54.302;10.128;2024-02-15T03:46:52;10.70;99.90
15707;DHT22;7953;54.302;10.128;2024-02-15T03:49:20;10.70;99.90
15707;DHT22;7953;54.302;10.128;2024-02-15T03:51:55;10.70;99.90
15707;DHT22;7953;54.302;10.128;2024-02-15T03:54:23;10.70;99.90
15707;DHT22;7953;54.302;10.128;2024-02-15T03:56:50;10.70;99.90
15707;DHT22;7953;54.302;10.128;2024-02-15T03:59:18;10.70;99.90
15707;DHT22;7953;54.302;10.128;2024-02-15T04:01:52;10.70;99.90
15707;DHT22;7953;54.302;10.128;2024-02-15T04:04:19;10.70;99.90
15707;DHT22;7953;54.302;10.128;2024-02-15T04:06:47;10.70;99.90
15707;DHT22;7953;54.302;10.128;2024-02-15T04:09:15;10.80;99.90
15707;DHT22;7953;54.302;10.128;2024-02-15T04:11:43;10.70;99.90
15707;DHT22;7953;54.302;10.128;2024-02-15T04:14:12;10.70;99.90
15707;DHT22;7953;54.302;10.128;2024-02-15T04:16:39;10.70;99.90
15707;DHT22;7953;54.302;10.128;2024-02-15T04:19:06;10.70;99.90
15707;DHT22;7953;54.302;10.128;2024-02-15T04:21:33;10.70;99.90
15707;DHT22;7953;54.302;10.128;2024-02-15T04:23:59;10.70;99.90
15707;DHT22;7953;54.302;10.128;2024-02-15T04:26:27;10.70;99.90
15707;DHT22;7953;54.302;10.128;2024-02-15T04:28:56;10.70;99.90
15707;DHT22;7953;54.302;10.128;2024-02-15T04:31:24;10.70;99.90
15707;DHT22;7953;54.302;10.128;2024-02-15T04:33:52;10.70;99.90
15707;DHT22;7953;54.302;10.128;2024-02-15T04:36:19;10.70;99.90
15707;DHT22;7953;54.302;10.128;2024-02-15T04:38:49;10.80;99.90
15707;DHT22;7953;54.302;10.128;2024-02-15T04:41:16;10.80;99.90
15707;DHT22;7953;54.302;10.128;2024-02-15T04:43:48;10.80;99.90
15707;DHT22;7953;54.302;10.128;2024-02-15T04:46:15;10.80;99.90
15707;DHT22;7953;54.302;10.128;2024-02-15T04:48:42;10.80;99.90
15707;DHT22;7953;54.302;10.128;2024-02-15T04:51:09;10.80;99.90
15707;DHT22;7953;54.302;10.128;2024-02-15T04:53:36;10.70;99.90
15707;DHT22;7953;54.302;10.128;2024-02-15T04:56:05;10.70;99.90
15707;DHT22;7953;54.302;10.128;2024-02-15T04:58:37;10.70;99.90
15707;DHT22;7953;54.302;10.128;2024-02-15T05:01:12;10.70;99.90
15707;DHT22;7953;54.302;10.128;2024-02-15T05:03:39;10.70;99.90
15707;DHT22;7953;54.302;10.128;2024-02-15T05:06:07;10.80;99.90
15707;DHT22;7953;54.302;10.128;2024-02-15T05:08:35;10.70;99.90
15707;DHT22;7953;54.302;10.128;2024-02-15T05:11:07;10.70;99.90
15707;DHT22;7953;54.302;10.128;2024-02-15T05:13:39;10.80;99.90
15707;DHT22;7953;54.302;10.128;2024-02-15T05:16:06;10.80;99.90
15707;DHT22;7953;54.302;10.128;2024-02-15T05:18:35;10.80;99.90
15707;DHT22;7953;54.302;10.128;2024-02-15T05:21:01;10.80;99.90
15707;DHT22;7953;54.302;10.128;2024-02-15T05:23:30;10.70;99.90
15707;DHT22;7953;54.302;10.128;2024-02-15T05:25:57;10.70;99.90
15707;DHT22;7953;54.302;10.128;2024-02-15T05:28:24;10.80;99.90
15707;DHT22;7953;54.302;10.128;2024-02-15T05:31:09;10.80;99.90
15707;DHT22;7953;54.302;10.128;2024-02-15T05:33:38;10.80;99.90
15707;DHT22;7953;54.302;10.128;2024-02-15T05:36:08;10.80;99.90
15707;DHT22;7953;54.302;10.128;2024-02-15T05:38:36;10.80;99.90
15707;DHT22;7953;54.302;10.128;2024-02-15T05:41:03;10.80;99.90
15707;DHT22;7953;54.302;10.128;2024-02-15T05:43:30;10.80;99.90
15707;DHT22;7953;54.302;10.128;2024-02-15T05:45:57;10.80;99.90
15707;DHT22;7953;54.302;10.128;2024-02-15T05:48:26;10.80;99.90
15707;DHT22;7953;54.302;10.128;2024-02-15T05:50:54;10.80;99.90
15707;DHT22;7953;54.302;10.128;2024-02-15T05:53:23;10.80;99.90
15707;DHT22;7953;54.302;10.128;2024-02-15T05:55:50;10.80;99.90
15707;DHT22;7953;54.302;10.128;2024-02-15T05:58:17;10.70;99.90
15707;DHT22;7953;54.302;10.128;2024-02-15T06:00:44;10.80;99.90
15707;DHT22;7953;54.302;10.128;2024-02-15T06:03:15;10.80;99.90
15707;DHT22;7953;54.302;10.128;2024-02-15T06:05:42;10.80;99.90
15707;DHT22;7953;54.302;10.128;2024-02-15T06:08:11;10.80;99.90
15707;DHT22;7953;54.302;10.128;2024-02-15T06:10:38;10.80;99.90
15707;DHT22;7953;54.302;10.128;2024-02-15T06:13:05;10.80;99.90
15707;DHT22;7953;54.302;10.128;2024-02-15T06:15:34;10.80;99.90
15707;DHT22;7953;54.302;10.128;2024-02-15T06:18:01;10.80;99.90
15707;DHT22;7953;54.302;10.128;2024-02-15T06:20:34;10.80;99.90
15707;DHT22;7953;54.302;10.128;2024-02-15T06:23:01;10.80;99.90
15707;DHT22;7953;54.302;10.128;2024-02-15T06:25:30;10.80;99.90
15707;DHT22;7953;54.302;10.128;2024-02-15T06:27:57;10.80;99.90
15707;DHT22;7953;54.302;10.128;2024-02-15T06:30:28;10.90;99.90
15707;DHT22;7953;54.302;10.128;2024-02-15T06:33:12;10.80;99.90
15707;DHT22;7953;54.302;10.128;2024-02-15T06:35:56;10.80;99.90
15707;DHT22;7953;54.302;10.128;2024-02-15T06:38:40;10.80;99.90
15707;DHT22;7953;54.302;10.128;2024-02-15T06:41:26;10.80;99.90
15707;DHT22;7953;54.302;10.128;2024-02-15T06:43:54;10.80;99.90
15707;DHT22;7953;54.302;10.128;2024-02-15T06:46:21;10.80;99.90
15707;DHT22;7953;54.302;10.128;2024-02-15T06:48:48;10.80;99.90
15707;DHT22;7953;54.302;10.128;2024-02-15T06:51:15;10.80;99.90
15707;DHT22;7953;54.302;10.128;2024-02-15T06:53:41;10.80;99.90
15707;DHT22;7953;54.302;10.128;2024-02-15T06:56:09;10.90;99.90
15707;DHT22;7953;54.302;10.128;2024-02-15T06:58:37;10.90;99.90
15707;DHT22;7953;54.302;10.128;2024-02-15T07:01:05;10.90;99.90
15707;DHT22;7953;54.302;10.128;2024-02-15T07:03:33;10.80;99.90
15707;DHT22;7953;54.302;10.128;2024-02-15T07:06:00;10.90;99.90
15707;DHT22;7953;54.302;10.128;2024-02-15T07:08:28;10.90;99.90
15707;DHT22;7953;54.302;10.128;2024-02-15T07:10:55;10.90;99.90
15707;DHT22;7953;54.302;10.128;2024-02-15T07:13:22;10.90;99.90
15707;DHT22;7953;54.302;10.128;2024-02-15T07:15:50;10.90;99.90
15707;DHT22;7953;54.302;10.128;2024-02-15T07:18:17;10.80;99.90
15707;DHT22;7953;54.302;10.128;2024-02-15T07:20:46;10.90;99.90
15707;DHT22;7953;54.302;10.128;2024-02-15T07:23:13;10.90;99.90
15707;DHT22;7953;54.302;10.128;2024-02-15T07:25:41;10.90;99.90
15707;DHT22;7953;54.302;10.128;2024-02-15T07:28:08;10.90;99.90
15707;DHT22;7953;54.302;10.128;2024-02-15T07:30:35;10.90;99.90
15707;DHT22;7953;54.302;10.128;2024-02-15T07:33:03;10.90;99.90
15707;DHT22;7953;54.302;10.128;2024-02-15T07:35:32;10.90;99.90
15707;DHT22;7953;54.302;10.128;2024-02-15T07:38:00;10.90;99.90
15707;DHT22;7953;54.302;10.128;2024-02-15T07:40:27;10.90;99.90
15707;DHT22;7953;54.302;10.128;2024-02-15T07:42:56;11.00;99.90
15707;DHT22;7953;54.302;10.128;2024-02-15T07:45:23;10.90;99.90
15707;DHT22;7953;54.302;10.128;2024-02-15T07:47:50;11.00;99.90
15707;DHT22;7953;54.302;10.128;2024-02-15T07:50:18;11.00;99.90
15707;DHT22;7953;54.302;10.128;2024-02-15T07:52:48;11.00;99.90
15707;DHT22;7953;54.302;10.128;2024-02-15T07:55:16;11.00;99.90
15707;DHT22;7953;54.302;10.128;2024-02-15T07:57:43;11.00;99.90
15707;DHT22;7953;54.302;10.128;2024-02-15T08:00:12;11.00;99.90
15707;DHT22;7953;54.302;10.128;2024-02-15T08:02:42;11.00;99.90
15707;DHT22;7953;54.302;10.128;2024-02-15T08:05:10;11.00;99.90
15707;DHT22;7953;54.302;10.128;2024-02-15T08:07:41;11.00;99.90
15707;DHT22;7953;54.302;10.128;2024-02-15T08:10:10;11.10;99.90
15707;DHT22;7953;54.302;10.128;2024-02-15T08:12:39;11.10;99.90
15707;DHT22;7953;54.302;10.128;2024-02-15T08:15:07;11.10;99.90
15707;DHT22;7953;54.302;10.128;2024-02-15T08:17:38;11.10;99.90
15707;DHT22;7953;54.302;10.128;2024-02-15T08:20:07;11.10;99.90
15707;DHT22;7953;54.302;10.128;2024-02-15T08:22:34;11.10;99.90
15707;DHT22;7953;54.302;10.128;2024-02-15T08:25:06;11.10;99.90
15707;DHT22;7953;54.302;10.128;2024-02-15T08:27:36;11.10;99.90
15707;DHT22;7953;54.302;10.128;2024-02-15T08:30:07;11.10;99.90
15707;DHT22;7953;54.302;10.128;2024-02-15T08:32:35;11.10;99.90
15707;DHT22;7953;54.302;10.128;2024-02-15T08:35:02;11.20;99.90
15707;DHT22;7953;54.302;10.128;2024-02-15T08:37:30;11.10;99.90
15707;DHT22;7953;54.302;10.128;2024-02-15T08:39:57;11.20;99.90
15707;DHT22;7953;54.302;10.128;2024-02-15T08:42:26;11.10;99.90
15707;DHT22;7953;54.302;10.128;2024-02-15T08:44:53;11.20;99.90
15707;DHT22;7953;54.302;10.128;2024-02-15T08:47:20;11.20;99.90
15707;DHT22;7953;54.302;10.128;2024-02-15T08:49:47;11.20;99.90
15707;DHT22;7953;54.302;10.128;2024-02-15T08:52:14;11.20;99.90
15707;DHT22;7953;54.302;10.128;2024-02-15T08:54:43;11.20;99.90
15707;DHT22;7953;54.302;10.128;2024-02-15T08:57:10;11.20;99.90
15707;DHT22;7953;54.302;10.128;2024-02-15T08:59:40;11.30;99.90
15707;DHT22;7953;54.302;10.128;2024-02-15T09:02:08;11.30;99.90
15707;DHT22;7953;54.302;10.128;2024-02-15T09:04:35;11.30;99.90
15707;DHT22;7953;54.302;10.128;2024-02-15T09:07:02;11.30;99.90
15707;DHT22;7953;54.302;10.128;2024-02-15T09:09:30;11.30;99.90
15707;DHT22;7953;54.302;10.128;2024-02-15T09:12:01;11.30;99.90
15707;DHT22;7953;54.302;10.128;2024-02-15T09:14:31;11.40;99.90
15707;DHT22;7953;54.302;10.128;2024-02-15T09:16:59;11.40;99.90
15707;DHT22;7953;54.302;10.128;2024-02-15T09:19:26;11.40;99.90
15707;DHT22;7953;54.302;10.128;2024-02-15T09:21:53;11.40;99.90
15707;DHT22;7953;54.302;10.128;2024-02-15T09:24:20;11.50;99.90
15707;DHT22;7953;54.302;10.128;2024-02-15T09:26:50;11.50;99.90
15707;DHT22;7953;54.302;10.128;2024-02-15T09:29:18;11.50;99.90
15707;DHT22;7953;54.302;10.128;2024-02-15T09:31:46;11.50;99.90
15707;DHT22;7953;54.302;10.128;2024-02-15T09:34:14;11.50;99.90
15707;DHT22;7953;54.302;10.128;2024-02-15T09:36:41;11.50;99.90
15707;DHT22;7953;54.302;10.128;2024-02-15T09:39:08;11.50;99.90
15707;DHT22;7953;54.302;10.128;2024-02-15T09:41:39;11.50;99.90
15707;DHT22;7953;54.302;10.128;2024-02-15T09:44:06;11.50;99.90
15707;DHT22;7953;54.302;10.128;2024-02-15T09:46:35;11.50;99.90
15707;DHT22;7953;54.302;10.128;2024-02-15T09:49:03;11.50;99.90
15707;DHT22;7953;54.302;10.128;2024-02-15T09:51:34;11.50;99.90
15707;DHT22;7953;54.302;10.128;2024-02-15T09:54:02;11.50;99.90
15707;DHT22;7953;54.302;10.128;2024-02-15T09:56:31;11.50;99.90
15707;DHT22;7953;54.302;10.128;2024-02-15T09:58:59;11.50;99.90
15707;DHT22;7953;54.302;10.128;2024-02-15T10:01:27;11.50;99.90
15707;DHT22;7953;54.302;10.128;2024-02-15T10:03:56;11.50;99.90
15707;DHT22;7953;54.302;10.128;2024-02-15T10:06:25;11.50;99.90
15707;DHT22;7953;54.302;10.128;2024-02-15T10:08:54;11.50;99.90
15707;DHT22;7953;54.302;10.128;2024-02-15T10:11:53;11.50;99.90
15707;DHT22;7953;54.302;10.128;2024-02-15T10:14:21;11.50;99.90
15707;DHT22;7953;54.302;10.128;2024-02-15T10:16:48;11.60;99.90
15707;DHT22;7953;54.302;10.128;2024-02-15T10:19:15;11.60;99.90
15707;DHT22;7953;54.302;10.128;2024-02-15T10:21:42;11.60;99.90
15707;DHT22;7953;54.302;10.128;2024-02-15T10:24:11;11.60;99.90
15707;DHT22;7953;54.302;10.128;2024-02-15T10:26:38;11.60;99.90
15707;DHT22;7953;54.302;10.128;2024-02-15T10:29:05;11.70;99.90
15707;DHT22;7953;54.302;10.128;2024-02-15T10:31:34;11.60;99.90
15707;DHT22;7953;54.302;10.128;2024-02-15T10:34:06;11.60;99.90
15707;DHT22;7953;54.302;10.128;2024-02-15T10:36:33;11.60;99.90
15707;DHT22;7953;54.302;10.128;2024-02-15T10:39:15;11.60;99.90
15707;DHT22;7953;54.302;10.128;2024-02-15T10:41:46;11.60;99.90
15707;DHT22;7953;54.302;10.128;2024-02-15T10:44:17;11.70;99.90
15707;DHT22;7953;54.302;10.128;2024-02-15T10:46:48;11.70;99.90
15707;DHT22;7953;54.302;10.128;2024-02-15T10:49:19;11.70;99.90
15707;DHT22;7953;54.302;10.128;2024-02-15T10:51:50;11.80;99.90
15707;DHT22;7953;54.302;10.128;2024-02-15T10:54:34;11.90;99.90
15707;DHT22;7953;54.302;10.128;2024-02-15T10:57:05;11.80;99.90
15707;DHT22;7953;54.302;10.128;2024-02-15T10:59:35;11.90;99.90
15707;DHT22;7953;54.302;10.128;2024-02-15T11:05:02;12.00;99.90
15707;DHT22;7953;54.302;10.128;2024-02-15T11:07:31;12.00;99.90
15707;DHT22;7953;54.302;10.128;2024-02-15T11:10:00;12.00;99.90
15707;DHT22;7953;54.302;10.128;2024-02-15T11:12:29;12.00;99.90
15707;DHT22;7953;54.302;10.128;2024-02-15T11:14:56;12.00;99.90
15707;DHT22;7953;54.302;10.128;2024-02-15T11:17:50;12.10;99.90
15707;DHT22;7953;54.302;10.128;2024-02-15T11:20:48;12.00;99.90
15707;DHT22;7953;54.302;10.128;2024-02-15T11:23:24;12.00;99.90
15707;DHT22;7953;54.302;10.128;2024-02-15T11:25:53;11.90;99.90
15707;DHT22;7953;54.302;10.128;2024-02-15T11:28:37;11.90;99.90
15707;DHT22;7953;54.302;10.128;2024-02-15T11:31:10;11.90;99.90
15707;DHT22;7953;54.302;10.128;2024-02-15T11:33:39;12.00;99.90
15707;DHT22;7953;54.302;10.128;2024-02-15T11:36:06;12.00;99.90
15707;DHT22;7953;54.302;10.128;2024-02-15T11:38:34;11.90;99.90
15707;DHT22;7953;54.302;10.128;2024-02-15T11:41:06;12.00;99.90
15707;DHT22;7953;54.302;10.128;2024-02-15T11:43:53;12.00;99.90
15707;DHT22;7953;54.302;10.128;2024-02-15T11:46:24;11.90;99.90
15707;DHT22;7953;54.302;10.128;2024-02-15T11:48:55;12.00;99.90
15707;DHT22;7953;54.302;10.128;2024-02-15T11:51:26;12.00;99.90
15707;DHT22;7953;54.302;10.128;2024-02-15T11:54:04;12.00;99.90
15707;DHT22;7953;54.302;10.128;2024-02-15T11:56:56;12.00;99.90
15707;DHT22;7953;54.302;10.128;2024-02-15T11:59:39;12.10;99.90
15707;DHT22;7953;54.302;10.128;2024-02-15T12:02:19;12.10;99.90
15707;DHT22;7953;54.302;10.128;2024-02-15T12:05:04;12.10;99.90
15707;DHT22;7953;54.302;10.128;2024-02-15T12:07:50;12.10;99.90
15707;DHT22;7953;54.302;10.128;2024-02-15T12:10:34;12.10;99.90
15707;DHT22;7953;54.302;10.128;2024-02-15T12:13:20;12.10;99.90
15707;DHT22;7953;54.302;10.128;2024-02-15T12:16:05;12.10;99.90
15707;DHT22;7953;54.302;10.128;2024-02-15T12:18:49;12.10;99.90
15707;DHT22;7953;54.302;10.128;2024-02-15T12:21:21;12.10;99.90
15707;DHT22;7953;54.302;10.128;2024-02-15T12:23:49;12.10;99.90
15707;DHT22;7953;54.302;10.128;2024-02-15T12:26:19;12.10;99.90
15707;DHT22;7953;54.302;10.128;2024-02-15T12:28:51;12.20;99.90
15707;DHT22;7953;54.302;10.128;2024-02-15T12:31:20;12.10;99.90
15707;DHT22;7953;54.302;10.128;2024-02-15T12:33:59;12.20;99.90
15707;DHT22;7953;54.302;10.128;2024-02-15T12:36:26;12.20;99.90
15707;DHT22;7953;54.302;10.128;2024-02-15T12:38:59;12.20;99.90
15707;DHT22;7953;54.302;10.128;2024-02-15T12:41:26;12.20;99.90
15707;DHT22;7953;54.302;10.128;2024-02-15T12:43:54;12.30;99.90
15707;DHT22;7953;54.302;10.128;2024-02-15T12:46:23;12.30;99.90
15707;DHT22;7953;54.302;10.128;2024-02-15T12:49:06;12.30;99.90
15707;DHT22;7953;54.302;10.128;2024-02-15T12:51:33;12.30;99.90
15707;DHT22;7953;54.302;10.128;2024-02-15T12:54:08;12.30;99.90
15707;DHT22;7953;54.302;10.128;2024-02-15T12:56:35;12.40;99.90
15707;DHT22;7953;54.302;10.128;2024-02-15T12:59:04;12.30;99.90
15707;DHT22;7953;54.302;10.128;2024-02-15T13:01:32;12.40;99.90
15707;DHT22;7953;54.302;10.128;2024-02-15T13:03:59;12.40;99.90
15707;DHT22;7953;54.302;10.128;2024-02-15T13:06:26;12.40;99.90
15707;DHT22;7953;54.302;10.128;2024-02-15T13:08:54;12.40;99.90
15707;DHT22;7953;54.302;10.128;2024-02-15T13:11:21;12.40;99.90
15707;DHT22;7953;54.302;10.128;2024-02-15T13:13:49;12.40;99.90
15707;DHT22;7953;54.302;10.128;2024-02-15T13:16:17;12.50;99.90
15707;DHT22;7953;54.302;10.128;2024-02-15T13:18:45;12.50;99.90
15707;DHT22;7953;54.302;10.128;2024-02-15T13:21:13;12.50;99.90
15707;DHT22;7953;54.302;10.128;2024-02-15T13:23:40;12.50;99.90
15707;DHT22;7953;54.302;10.128;2024-02-15T13:26:07;12.60;99.90
15707;DHT22;7953;54.302;10.128;2024-02-15T13:28:35;12.50;99.90
15707;DHT22;7953;54.302;10.128;2024-02-15T13:31:01;12.60;99.90
15707;DHT22;7953;54.302;10.128;2024-02-15T13:33:30;12.50;99.90
15707;DHT22;7953;54.302;10.128;2024-02-15T13:35:57;12.50;99.90
15707;DHT22;7953;54.302;10.128;2024-02-15T13:38:24;12.60;99.90
15707;DHT22;7953;54.302;10.128;2024-02-15T13:40:52;12.60;99.90
15707;DHT22;7953;54.302;10.128;2024-02-15T13:43:21;12.60;99.90
15707;DHT22;7953;54.302;10.128;2024-02-15T13:45:47;12.60;99.90
15707;DHT22;7953;54.302;10.128;2024-02-15T13:48:14;12.60;99.90
15707;DHT22;7953;54.302;10.128;2024-02-15T13:50:43;12.50;99.90
15707;DHT22;7953;54.302;10.128;2024-02-15T13:53:10;12.60;99.90
15707;DHT22;7953;54.302;10.128;2024-02-15T13:55:39;12.60;99.90
15707;DHT22;7953;54.302;10.128;2024-02-15T13:58:05;12.60;99.90
15707;DHT22;7953;54.302;10.128;2024-02-15T14:00:37;12.60;99.90
15707;DHT22;7953;54.302;10.128;2024-02-15T14:03:08;12.50;99.90
15707;DHT22;7953;54.302;10.128;2024-02-15T14:05:36;12.50;99.90
15707;DHT22;7953;54.302;10.128;2024-02-15T14:08:06;12.50;99.90
15707;DHT22;7953;54.302;10.128;2024-02-15T14:10:34;12.50;99.90
15707;DHT22;7953;54.302;10.128;2024-02-15T14:13:02;12.50;99.90
15707;DHT22;7953;54.302;10.128;2024-02-15T14:15:31;12.50;99.90
15707;DHT22;7953;54.302;10.128;2024-02-15T14:17:59;12.50;99.90
15707;DHT22;7953;54.302;10.128;2024-02-15T14:20:26;12.50;99.90
15707;DHT22;7953;54.302;10.128;2024-02-15T14:22:53;12.50;99.90
15707;DHT22;7953;54.302;10.128;2024-02-15T14:25:23;12.50;99.90
15707;DHT22;7953;54.302;10.128;2024-02-15T14:27:51;12.40;99.90
15707;DHT22;7953;54.302;10.128;2024-02-15T14:30:18;12.50;99.90
15707;DHT22;7953;54.302;10.128;2024-02-15T14:33:03;12.50;99.90
15707;DHT22;7953;54.302;10.128;2024-02-15T14:35:34;12.50;99.90
15707;DHT22;7953;54.302;10.128;2024-02-15T14:38:02;12.50;99.90
15707;DHT22;7953;54.302;10.128;2024-02-15T14:40:34;12.40;99.90
15707;DHT22;7953;54.302;10.128;2024-02-15T14:43:01;12.40;99.90
15707;DHT22;7953;54.302;10.128;2024-02-15T14:45:28;12.40;99.90
15707;DHT22;7953;54.302;10.128;2024-02-15T14:47:55;12.40;99.90
15707;DHT22;7953;54.302;10.128;2024-02-15T14:50:21;12.40;99.90
15707;DHT22;7953;54.302;10.128;2024-02-15T14:52:49;12.40;99.90
15707;DHT22;7953;54.302;10.128;2024-02-15T14:55:17;12.40;99.90
15707;DHT22;7953;54.302;10.128;2024-02-15T14:57:46;12.30;99.90
15707;DHT22;7953;54.302;10.128;2024-02-15T15:00:13;12.40;99.90
15707;DHT22;7953;54.302;10.128;2024-02-15T15:02:43;12.30;99.90
15707;DHT22;7953;54.302;10.128;2024-02-15T15:05:12;12.40;99.90
15707;DHT22;7953;54.302;10.128;2024-02-15T15:08:05;12.30;99.90
15707;DHT22;7953;54.302;10.128;2024-02-15T15:10:50;12.40;99.90
15707;DHT22;7953;54.302;10.128;2024-02-15T15:13:35;12.40;99.90
15707;DHT22;7953;54.302;10.128;2024-02-15T15:16:03;12.40;99.90
15707;DHT22;7953;54.302;10.128;2024-02-15T15:18:30;12.40;99.90
15707;DHT22;7953;54.302;10.128;2024-02-15T15:20:58;12.40;99.90
15707;DHT22;7953;54.302;10.128;2024-02-15T15:23:26;12.30;99.90
15707;DHT22;7953;54.302;10.128;2024-02-15T15:25:55;12.30;99.90
15707;DHT22;7953;54.302;10.128;2024-02-15T15:28:22;12.30;99.90
15707;DHT22;7953;54.302;10.128;2024-02-15T15:30:50;12.40;99.90
15707;DHT22;7953;54.302;10.128;2024-02-15T15:33:17;12.40;99.90
15707;DHT22;7953;54.302;10.128;2024-02-15T15:35:45;12.40;99.90
15707;DHT22;7953;54.302;10.128;2024-02-15T15:38:12;12.40;99.90
15707;DHT22;7953;54.302;10.128;2024-02-15T15:40:39;12.30;99.90
15707;DHT22;7953;54.302;10.128;2024-02-15T15:43:07;12.30;99.90
15707;DHT22;7953;54.302;10.128;2024-02-15T15:45:34;12.30;99.90